Lebanon Municipal Airport Lebanon US
ICAO: KLEB
IATA: LEB
Category: Medium
Scheduled Services: Yes

Elevation: 603 ft
TransAlt. 18000 ft.

Airport Communications:
BOSTON APP/DEP:134.7
ASOS:118.65
ATIS:118.65
CTAF:125.95
GND:121.6
BANGOR RDO:122.2
TWR:125.95
UNICOM:122.95

KLEB Zoom In..

If you have problems with the map follow the link
https://www.worldairports.se/pages/airport.php?
ICAO=KLEB

Runways:

(A) RW 07 length 5496 ft width 100 ft
---- / hdg 75

(B) RW 18 length 5200 ft width 100 ft
ILS 111.90 / hdg 184

(C) RW 25 length 5496 ft width 100 ft
---- / hdg 255

(D) RW 36 length 5200 ft width 100 ft
---- / hdg 4

Location; KLEB
Day. 29 / Time. 15.53 Zulu
* Altimeter: 30.06
* Temperature: -02° c. -28.4°f.
* Wind from: 310° Speed 10 kn.
Dewpoint: -11° c.
Visibility: 10 Statute Miles.
Clouds: Clear (automated report).

KLEB 291553Z 31010KT 10SM CLR M02/M11 A3006 RMK AO2 SLP188 T10171111


Wind From 310°
Speed 10 kn.

 
 
jpsmedia worldairports.se 2020   terms of use